createdAt,value
2017-03-06T00:01:00.685Z,89.9
2017-03-06T00:02:22.798Z,89.72
2017-03-06T00:03:44.549Z,89.43
2017-03-06T00:05:06.662Z,89.43
2017-03-06T00:06:29.449Z,89.43
2017-03-06T00:07:52.013Z,89.53
2017-03-06T00:09:14.518Z,90.28
2017-03-06T00:10:37.425Z,90
2017-03-06T00:11:59.752Z,90.19
2017-03-06T00:13:22.295Z,89.72
2017-03-06T00:14:44.488Z,89.72
2017-03-06T00:16:06.591Z,90.09
2017-03-06T00:17:29.497Z,90
2017-03-06T00:18:52.398Z,89.81
2017-03-06T00:20:15.397Z,89.9
2017-03-06T00:21:37.488Z,89.9
2017-03-06T00:22:59.054Z,90.19
2017-03-06T00:24:22.023Z,90.57
2017-03-06T00:25:44.539Z,90.57
2017-03-06T00:27:06.681Z,90.66
2017-03-06T00:28:29.420Z,90.47
2017-03-06T00:29:52.307Z,90
2017-03-06T00:31:14.491Z,90.09
2017-03-06T00:32:37.488Z,89.72
2017-03-06T00:33:59.088Z,89.05
2017-03-06T00:35:20.804Z,89.43
2017-03-06T00:36:42.958Z,89.33
2017-03-06T00:38:05.417Z,89.33
2017-03-06T00:39:27.840Z,88.76
2017-03-06T00:40:50.361Z,89.14
2017-03-06T00:42:12.461Z,88.48
2017-03-06T00:43:34.210Z,88.2
2017-03-06T00:44:57.328Z,88.2
2017-03-06T00:46:19.432Z,88.01
2017-03-06T00:47:41.401Z,87.48
2017-03-06T00:49:03.604Z,87.76
2017-03-06T00:50:26.399Z,88.05
2017-03-06T00:51:48.087Z,88.01
2017-03-06T00:53:11.007Z,87.67
2017-03-06T00:54:33.485Z,87.19
2017-03-06T00:55:56.311Z,87.19
2017-03-06T00:57:19.279Z,86.91
2017-03-06T00:58:41.791Z,87.01
2017-03-06T01:00:04.303Z,86.91
2017-03-06T01:01:26.671Z,87.01
2017-03-06T01:02:49.284Z,86.72
2017-03-06T01:04:10.984Z,86.91
2017-03-06T01:05:33.117Z,87.01
2017-03-06T01:06:56.370Z,87.1
2017-03-06T01:08:18.494Z,86.63
2017-03-06T01:09:40.978Z,86.91
2017-03-06T01:11:03.870Z,87.01
2017-03-06T01:12:26.661Z,86.82
2017-03-06T01:13:49.570Z,86.72
2017-03-06T01:15:11.284Z,86.72
2017-03-06T01:16:33.857Z,87.01
2017-03-06T01:17:56.606Z,86.82
2017-03-06T01:19:18.405Z,86.43
2017-03-06T01:20:41.299Z,86.82
2017-03-06T01:22:03.503Z,86.72
2017-03-06T01:23:26.932Z,86.63
2017-03-06T01:24:48.222Z,87.1
2017-03-06T01:26:09.965Z,87.01
2017-03-06T01:27:32.475Z,87.01
2017-03-06T01:28:54.864Z,86.53
2017-03-06T01:30:17.376Z,87.1
2017-03-06T01:31:38.671Z,86.82
2017-03-06T01:33:00.368Z,86.91
2017-03-06T01:34:23.750Z,86.82
2017-03-06T01:35:45.853Z,87.19
2017-03-06T01:37:07.592Z,87.19
2017-03-06T01:38:29.681Z,87.19
2017-03-06T01:39:52.600Z,87.57
2017-03-06T01:41:14.527Z,86.91
2017-03-06T01:42:36.652Z,87.19
2017-03-06T01:43:59.154Z,87.19
2017-03-06T01:45:21.110Z,87.19
2017-03-06T01:46:43.252Z,87.48
2017-03-06T01:48:05.751Z,88.15
2017-03-06T01:49:27.464Z,88.34
2017-03-06T01:50:50.621Z,87.95
2017-03-06T01:52:12.343Z,88.43
2017-03-06T01:53:33.649Z,88.71
2017-03-06T01:54:55.782Z,88.71
2017-03-06T01:56:18.200Z,88.53
2017-03-06T01:57:40.705Z,88.81
2017-03-06T01:59:02.812Z,89
2017-03-06T02:00:25.332Z,89.14
2017-03-06T02:01:48.514Z,89.09
2017-03-06T02:03:10.814Z,89.09
2017-03-06T02:04:33.352Z,89.09
2017-03-06T02:05:55.037Z,89.33
2017-03-06T02:07:17.397Z,89.33
2017-03-06T02:08:39.907Z,89.57
2017-03-06T02:10:02.461Z,90
2017-03-06T02:11:24.171Z,90
2017-03-06T02:12:46.927Z,90.57
2017-03-06T02:14:09.034Z,90.76
2017-03-06T02:15:31.549Z,91.14
2017-03-06T02:16:53.743Z,91.14
2017-03-06T02:18:16.931Z,91.52
2017-03-06T02:19:39.373Z,91.99
2017-03-06T02:21:01.560Z,92.09
2017-03-06T02:22:23.760Z,92.85
2017-03-06T02:23:46.575Z,93.41
2017-03-06T02:25:08.709Z,92.75
2017-03-06T02:26:30.413Z,92.66
2017-03-06T02:27:52.531Z,92.94
2017-03-06T02:29:14.459Z,92.94
2017-03-06T02:30:36.572Z,93.51
2017-03-06T02:31:59.059Z,93.8
2017-03-06T02:33:21.569Z,93.7
2017-03-06T02:34:44.534Z,93.51
2017-03-06T02:36:06.561Z,93.32
2017-03-06T02:37:28.656Z,93.13
2017-03-06T02:38:50.370Z,93.6
2017-03-06T02:40:13.308Z,93.7
2017-03-06T02:41:35.037Z,93.13
2017-03-06T02:42:57.579Z,93.7
2017-03-06T02:44:20.139Z,93.41
2017-03-06T02:45:42.472Z,93.6
2017-03-06T02:47:05.358Z,93.41
2017-03-06T02:48:27.937Z,93.41
2017-03-06T02:49:50.565Z,94.18
2017-03-06T02:51:13.543Z,94.08
2017-03-06T02:52:36.425Z,93.89
2017-03-06T02:53:58.141Z,94.18
2017-03-06T02:55:20.307Z,94.18
2017-03-06T02:56:43.220Z,94.27
2017-03-06T02:58:04.911Z,94.27
2017-03-06T02:59:27.007Z,94.27
2017-03-06T03:00:49.497Z,93.8
2017-03-06T03:02:11.938Z,93.89
2017-03-06T03:03:34.466Z,94.74
2017-03-06T03:04:56.610Z,94.27
2017-03-06T03:06:18.310Z,94.27
2017-03-06T03:07:41.230Z,94.37
2017-03-06T03:09:03.392Z,94.37
2017-03-06T03:10:25.517Z,94.74
2017-03-06T03:11:48.014Z,94.37
2017-03-06T03:13:09.665Z,94.56
2017-03-06T03:14:32.549Z,94.65
2017-03-06T03:15:55.042Z,95.12
2017-03-06T03:17:17.542Z,94.93
2017-03-06T03:18:40.484Z,94.74
2017-03-06T03:20:02.671Z,94.56
2017-03-06T03:21:24.849Z,94.56
2017-03-06T03:22:47.352Z,94.84
2017-03-06T03:24:09.368Z,94.84
2017-03-06T03:25:31.895Z,94.84
2017-03-06T03:26:53.569Z,95.03
2017-03-06T03:28:16.131Z,94.65
2017-03-06T03:29:39.199Z,95.12
2017-03-06T03:31:01.719Z,95.51
2017-03-06T03:32:23.889Z,95.22
2017-03-06T03:33:46.415Z,95.03
2017-03-06T03:35:08.363Z,95.31
2017-03-06T03:36:31.328Z,95.03
2017-03-06T03:37:53.828Z,95.41
2017-03-06T03:39:16.357Z,95.41
2017-03-06T03:40:39.177Z,95.89
2017-03-06T03:42:00.942Z,95.12
2017-03-06T03:43:23.826Z,95.03
2017-03-06T03:44:45.638Z,95.51
2017-03-06T03:46:08.465Z,95.31
2017-03-06T03:47:31.185Z,95.12
2017-03-06T03:48:53.407Z,95.22
2017-03-06T03:50:15.130Z,95.31
2017-03-06T03:51:37.946Z,95.31
2017-03-06T03:52:59.270Z,95.12
2017-03-06T03:54:21.387Z,94.65
2017-03-06T03:55:43.893Z,95.51
2017-03-06T03:57:06.675Z,95.22
2017-03-06T03:58:29.296Z,95.31
2017-03-06T03:59:51.014Z,95.22
2017-03-06T04:01:13.123Z,95.89
2017-03-06T04:02:35.917Z,95.51
2017-03-06T04:03:58.820Z,95.31
2017-03-06T04:05:21.777Z,94.93
2017-03-06T04:06:43.898Z,95.98
2017-03-06T04:08:06.764Z,95.7
2017-03-06T04:09:28.495Z,95.7
2017-03-06T04:10:50.216Z,95.7
2017-03-06T04:12:12.281Z,95.51
2017-03-06T04:13:34.687Z,95.89
2017-03-06T04:14:56.860Z,95.6
2017-03-06T04:16:19.368Z,96.26
2017-03-06T04:17:41.929Z,95.98
2017-03-06T04:19:03.528Z,95.6
2017-03-06T04:20:26.535Z,95.7
2017-03-06T04:21:49.125Z,96.08
2017-03-06T04:23:11.637Z,96.36
2017-03-06T04:24:34.030Z,96.26
2017-03-06T04:25:56.148Z,96.17
2017-03-06T04:27:19.107Z,96.64
2017-03-06T04:28:42.008Z,96.36
2017-03-06T04:30:04.857Z,96.64
2017-03-06T04:31:27.377Z,96.64
2017-03-06T04:32:48.894Z,96.55
2017-03-06T04:34:11.399Z,96.74
2017-03-06T04:35:33.447Z,96.55
2017-03-06T04:36:55.765Z,96.74
2017-03-06T04:38:17.096Z,96.93
2017-03-06T04:39:39.187Z,96.55
2017-03-06T04:41:01.999Z,96.55
2017-03-06T04:42:24.519Z,96.55
2017-03-06T04:43:47.025Z,96.17
2017-03-06T04:45:08.487Z,96.36
2017-03-06T04:46:31.312Z,96.17
2017-03-06T04:47:53.825Z,95.6
2017-03-06T04:49:16.032Z,96.08
2017-03-06T04:50:37.753Z,95.98
2017-03-06T04:52:00.348Z,96.26
2017-03-06T04:53:22.549Z,95.6
2017-03-06T04:54:45.086Z,95.51
2017-03-06T04:56:08.165Z,95.7
2017-03-06T04:57:31.382Z,95.89
2017-03-06T04:58:54.309Z,96.08
2017-03-06T05:00:16.052Z,95.51
2017-03-06T05:01:38.587Z,96.17
2017-03-06T05:03:00.990Z,95.98
2017-03-06T05:04:23.949Z,96.26
2017-03-06T05:05:46.082Z,96.17
2017-03-06T05:07:08.969Z,95.89
2017-03-06T05:08:31.343Z,95.89
2017-03-06T05:09:54.245Z,96.08
2017-03-06T05:11:16.358Z,96.08
2017-03-06T05:12:39.071Z,96.08
2017-03-06T05:14:01.464Z,96.08
2017-03-06T05:15:23.175Z,96.74
2017-03-06T05:16:45.788Z,96.17
2017-03-06T05:18:08.738Z,96.36
2017-03-06T05:19:31.506Z,96.74
2017-03-06T05:20:54.432Z,96.83
2017-03-06T05:22:16.949Z,97.12
2017-03-06T05:23:39.857Z,96.83
2017-03-06T05:25:03.076Z,97.12
2017-03-06T05:26:25.187Z,97.6
2017-03-06T05:27:46.974Z,97.41
2017-03-06T05:29:09.077Z,98.26
2017-03-06T05:30:31.505Z,98.07
2017-03-06T05:31:53.661Z,98.16
2017-03-06T05:33:15.813Z,99.02
2017-03-06T05:34:37.923Z,99.02
2017-03-06T05:36:00.830Z,98.64
2017-03-06T05:37:22.577Z,99.06
2017-03-06T05:38:45.133Z,99.58
2017-03-06T05:40:07.260Z,99.44
2017-03-06T05:41:29.658Z,99.82
2017-03-06T05:42:51.862Z,99.44
2017-03-06T05:44:14.479Z,99.73
2017-03-06T05:45:36.566Z,99.99
2017-03-06T05:46:59.361Z,99.99
2017-03-06T05:48:22.269Z,99.99
2017-03-06T05:49:44.939Z,99.35
2017-03-06T05:51:07.073Z,99.3
2017-03-06T05:52:29.449Z,99.4
2017-03-06T05:53:52.024Z,99.49
2017-03-06T05:55:15.019Z,99.49
2017-03-06T05:56:37.526Z,99.58
2017-03-06T05:57:59.531Z,99.87
2017-03-06T05:59:22.069Z,99.68
2017-03-06T06:00:44.570Z,99.77
2017-03-06T06:02:07.089Z,99.87
2017-03-06T06:03:29.878Z,99.77
2017-03-06T06:04:51.717Z,99.58
2017-03-06T06:06:14.220Z,99.49
2017-03-06T06:07:36.329Z,99.26
2017-03-06T06:08:59.139Z,99.4
2017-03-06T06:10:21.286Z,99.87
2017-03-06T06:11:43.524Z,99.68
2017-03-06T06:13:06.190Z,99.02
2017-03-06T06:14:28.590Z,99.58
2017-03-06T06:15:50.696Z,99.68
2017-03-06T06:17:13.623Z,99.87
2017-03-06T06:18:34.941Z,99.49
2017-03-06T06:19:58.196Z,99.49
2017-03-06T06:21:21.078Z,99.58
2017-03-06T06:22:43.669Z,99.77
2017-03-06T06:24:06.816Z,99.68
2017-03-06T06:25:29.978Z,99.3
2017-03-06T06:26:52.873Z,99.4
2017-03-06T06:28:15.000Z,99.4
2017-03-06T06:29:37.528Z,99.77
2017-03-06T06:30:59.564Z,99.49
2017-03-06T06:32:21.661Z,99.49
2017-03-06T06:33:43.777Z,99.58
2017-03-06T06:35:06.288Z,99.68
2017-03-06T06:36:29.564Z,99.77
2017-03-06T06:37:52.476Z,99.4
2017-03-06T06:39:14.679Z,99.58
2017-03-06T06:40:36.908Z,99.87
2017-03-06T06:41:59.780Z,99.49
2017-03-06T06:43:21.984Z,99.11
2017-03-06T06:44:44.380Z,99.3
2017-03-06T06:46:07.309Z,99.68
2017-03-06T06:47:29.399Z,99.02
2017-03-06T06:48:51.522Z,98.64
2017-03-06T06:50:13.642Z,99.02
2017-03-06T06:51:36.149Z,98.83
2017-03-06T06:52:58.552Z,98.83
2017-03-06T06:54:21.676Z,98.92
2017-03-06T06:55:43.790Z,99.21
2017-03-06T06:57:05.889Z,98.45
2017-03-06T06:58:28.409Z,98.45
2017-03-06T06:59:49.912Z,98.35
2017-03-06T07:01:11.647Z,98.16
2017-03-06T07:02:34.317Z,97.88
2017-03-06T07:03:56.371Z,97.78
2017-03-06T07:05:18.461Z,97.41
2017-03-06T07:06:40.968Z,97.78
2017-03-06T07:08:03.441Z,97.31
2017-03-06T07:09:25.822Z,97.22
2017-03-06T07:10:48.090Z,97.69
2017-03-06T07:12:10.603Z,96.93
2017-03-06T07:13:32.873Z,97.22
2017-03-06T07:14:55.251Z,96.74
2017-03-06T07:16:18.271Z,96.55
2017-03-06T07:17:41.170Z,96.64
2017-03-06T07:19:03.672Z,96.45
2017-03-06T07:20:26.086Z,96.45
2017-03-06T07:21:48.639Z,95.89
2017-03-06T07:23:10.763Z,96.22
2017-03-06T07:24:33.257Z,95.46
2017-03-06T07:25:55.653Z,95.94
2017-03-06T07:27:17.764Z,95.27
2017-03-06T07:28:40.278Z,95.55
2017-03-06T07:30:02.388Z,94.89
2017-03-06T07:31:24.352Z,94.89
2017-03-06T07:32:45.688Z,95.08
2017-03-06T07:34:07.760Z,94.6
2017-03-06T07:35:30.709Z,94.51
2017-03-06T07:36:53.485Z,94.79
2017-03-06T07:38:15.614Z,95.36
2017-03-06T07:39:38.566Z,95.27
2017-03-06T07:41:00.668Z,94.89
2017-03-06T07:42:23.411Z,94.51
2017-03-06T07:43:45.912Z,94.98
2017-03-06T07:45:08.408Z,95.65
2017-03-06T07:46:30.921Z,95.55
2017-03-06T07:47:52.882Z,95.08
2017-03-06T07:49:15.659Z,95.84
2017-03-06T07:50:37.404Z,95.75
2017-03-06T07:51:59.115Z,95.27
2017-03-06T07:53:21.528Z,95.17
2017-03-06T07:54:43.629Z,95.17
2017-03-06T07:56:06.170Z,94.89
2017-03-06T07:57:28.304Z,95.17
2017-03-06T07:58:51.438Z,94.89
2017-03-06T08:00:14.039Z,94.51
2017-03-06T08:01:36.568Z,94.03
2017-03-06T08:02:59.482Z,94.23
2017-03-06T08:04:22.653Z,93.37
2017-03-06T08:05:44.777Z,93.79
2017-03-06T08:07:06.090Z,93.32
2017-03-06T08:08:28.230Z,92.75
2017-03-06T08:09:51.403Z,92.46
2017-03-06T08:11:14.309Z,92.46
2017-03-06T08:12:36.145Z,91.33
2017-03-06T08:13:59.024Z,91.33
2017-03-06T08:15:21.593Z,91.23
2017-03-06T08:16:43.709Z,91.13
2017-03-06T08:18:05.911Z,90.33
2017-03-06T08:19:28.448Z,90.42
2017-03-06T08:20:50.799Z,90.52
2017-03-06T08:22:13.409Z,89.94
2017-03-06T08:23:35.500Z,88.9
2017-03-06T08:24:57.204Z,88.52
2017-03-06T08:26:20.390Z,89.66
2017-03-06T08:27:43.106Z,89.37
2017-03-06T08:29:05.649Z,88.9
2017-03-06T08:30:28.162Z,89.37
2017-03-06T08:31:50.587Z,88.9
2017-03-06T08:33:13.107Z,89.47
2017-03-06T08:34:34.905Z,89.18
2017-03-06T08:35:57.378Z,88.9
2017-03-06T08:37:19.468Z,89.37
2017-03-06T08:38:42.395Z,89.18
2017-03-06T08:40:04.135Z,90.04
2017-03-06T08:41:26.241Z,90.33
2017-03-06T08:42:49.398Z,90.7
2017-03-06T08:44:11.117Z,89.94
2017-03-06T08:45:34.140Z,89.85
2017-03-06T08:46:57.069Z,90.33
2017-03-06T08:48:19.182Z,89.94
2017-03-06T08:49:40.478Z,89.47
2017-03-06T08:51:02.577Z,89
2017-03-06T08:52:24.680Z,89
2017-03-06T08:53:47.181Z,89.28
2017-03-06T08:55:09.688Z,88.94
2017-03-06T08:56:32.213Z,87.42
2017-03-06T08:57:54.740Z,87.71
2017-03-06T08:59:18.004Z,88.18
2017-03-06T09:00:40.578Z,85.99
2017-03-06T09:02:03.084Z,87.32
2017-03-06T09:03:25.997Z,87.8
2017-03-06T09:04:48.819Z,87.61
2017-03-06T09:06:11.812Z,87.61
2017-03-06T09:07:33.944Z,88.09
2017-03-06T09:08:56.442Z,88.37
2017-03-06T09:10:19.287Z,89.28
2017-03-06T09:11:42.418Z,89.18
2017-03-06T09:13:04.501Z,89.09
2017-03-06T09:14:27.467Z,88.94
2017-03-06T09:15:50.539Z,88.23
2017-03-06T09:17:12.803Z,88.52
2017-03-06T09:18:35.443Z,89
2017-03-06T09:19:58.445Z,88.75
2017-03-06T09:21:21.757Z,88.9
2017-03-06T09:22:43.889Z,89.18
2017-03-06T09:24:06.389Z,89.47
2017-03-06T09:25:29.290Z,89.18
2017-03-06T09:26:51.690Z,89.66
2017-03-06T09:28:14.278Z,89.37
2017-03-06T09:29:36.830Z,89.47
2017-03-06T09:30:59.367Z,89.47
2017-03-06T09:32:22.166Z,89.56
2017-03-06T09:33:45.059Z,89.28
2017-03-06T09:35:07.949Z,89.47
2017-03-06T09:36:29.731Z,89.14
2017-03-06T09:37:52.961Z,89
2017-03-06T09:39:15.477Z,88.66
2017-03-06T09:40:38.405Z,89.14
2017-03-06T09:42:00.595Z,88.37
2017-03-06T09:43:23.750Z,88.75
2017-03-06T09:44:45.492Z,89.47
2017-03-06T09:46:07.229Z,88.66
2017-03-06T09:47:29.730Z,88.94
2017-03-06T09:48:53.075Z,88.94
2017-03-06T09:50:15.570Z,89.04
2017-03-06T09:51:37.690Z,88.66
2017-03-06T09:53:00.622Z,89.23
2017-03-06T09:54:23.578Z,89.04
2017-03-06T09:55:46.074Z,88.61
2017-03-06T09:57:08.588Z,89.51
2017-03-06T09:58:31.501Z,88.9
2017-03-06T09:59:54.440Z,88.94
2017-03-06T10:01:16.545Z,89.14
2017-03-06T10:02:39.062Z,88.28
2017-03-06T10:04:01.589Z,86.51
2017-03-06T10:05:24.457Z,85.85
2017-03-06T10:06:46.584Z,85.56
2017-03-06T10:08:08.848Z,85.18
2017-03-06T10:09:30.966Z,84.61
2017-03-06T10:10:53.779Z,84.61
2017-03-06T10:12:16.300Z,83.32
2017-03-06T10:13:39.209Z,82.75
2017-03-06T10:15:01.795Z,81.98
2017-03-06T10:16:24.183Z,82.27
2017-03-06T10:17:47.090Z,81.41
2017-03-06T10:19:09.202Z,80.75
2017-03-06T10:20:31.713Z,80.84
2017-03-06T10:21:54.911Z,81.23
2017-03-06T10:23:17.429Z,81.32
2017-03-06T10:24:39.957Z,81.13
2017-03-06T10:26:02.128Z,81.03
2017-03-06T10:27:25.341Z,80.08
2017-03-06T10:28:48.312Z,80.79
2017-03-06T10:30:11.218Z,80.36
2017-03-06T10:31:33.804Z,80.36
2017-03-06T10:32:55.855Z,79.7
2017-03-06T10:34:18.368Z,79.51
2017-03-06T10:35:40.499Z,78.78
2017-03-06T10:37:02.668Z,78.69
2017-03-06T10:38:25.558Z,77.26
2017-03-06T10:39:48.079Z,78.08
2017-03-06T10:41:10.185Z,79.41
2017-03-06T10:42:32.853Z,79.99
2017-03-06T10:43:55.287Z,79.32
2017-03-06T10:45:18.501Z,79.7
2017-03-06T10:46:41.009Z,80.71
2017-03-06T10:48:03.527Z,80.27
2017-03-06T10:49:26.730Z,79.99
2017-03-06T10:50:49.237Z,80.08
2017-03-06T10:52:11.362Z,79.8
2017-03-06T10:53:33.489Z,79.51
2017-03-06T10:54:56.412Z,79.41
2017-03-06T10:56:19.000Z,79.03
2017-03-06T10:57:41.527Z,79.75
2017-03-06T10:59:04.071Z,79.47
2017-03-06T11:00:26.468Z,79.85
2017-03-06T11:01:48.582Z,79.75
2017-03-06T11:03:11.131Z,79.57
2017-03-06T11:04:33.298Z,79.22
2017-03-06T11:05:56.123Z,77.89
2017-03-06T11:07:18.247Z,77.51
2017-03-06T11:08:40.796Z,76.94
2017-03-06T11:10:03.211Z,76.4
2017-03-06T11:11:25.569Z,75.84
2017-03-06T11:12:47.897Z,75.26
2017-03-06T11:14:10.427Z,73.58
2017-03-06T11:15:32.994Z,72.53
2017-03-06T11:16:56.025Z,71.48
2017-03-06T11:18:18.949Z,71.2
2017-03-06T11:19:41.584Z,72.16
2017-03-06T11:21:03.823Z,71.48
2017-03-06T11:22:26.286Z,72.06
2017-03-06T11:23:48.461Z,71.39
2017-03-06T11:25:10.981Z,72.16
2017-03-06T11:26:33.102Z,71.58
2017-03-06T11:27:55.848Z,71.48
2017-03-06T11:29:18.499Z,71.48
2017-03-06T11:30:40.215Z,71.01
2017-03-06T11:32:02.401Z,71.11
2017-03-06T11:33:24.815Z,71.77
2017-03-06T11:34:47.371Z,71.96
2017-03-06T11:36:09.489Z,70.57
2017-03-06T11:37:31.618Z,70.44
2017-03-06T11:38:54.116Z,70.72
2017-03-06T11:40:16.238Z,69.62
2017-03-06T11:41:38.484Z,69.52
2017-03-06T11:43:00.682Z,69.52
2017-03-06T11:44:22.699Z,69.14
2017-03-06T11:45:45.217Z,69.04
2017-03-06T11:47:07.371Z,69.33
2017-03-06T11:48:29.937Z,69.33
2017-03-06T11:49:52.906Z,69.9
2017-03-06T11:51:15.591Z,71.11
2017-03-06T11:52:38.102Z,71.11
2017-03-06T11:54:01.031Z,71.11
2017-03-06T11:55:23.466Z,71.77
2017-03-06T11:56:45.637Z,71.58
2017-03-06T11:58:08.588Z,70.82
2017-03-06T11:59:31.117Z,71.96
2017-03-06T12:00:54.330Z,71.87
2017-03-06T12:02:17.253Z,72.72
2017-03-06T12:03:40.222Z,73.87
2017-03-06T12:05:02.761Z,73.45
2017-03-06T12:06:25.579Z,73.17
2017-03-06T12:07:48.134Z,72.63
2017-03-06T12:09:11.077Z,71.3
2017-03-06T12:10:33.616Z,71.01
2017-03-06T12:11:56.415Z,71.58
2017-03-06T12:13:19.349Z,72.63
2017-03-06T12:14:41.877Z,72.06
2017-03-06T12:16:04.423Z,72.69
2017-03-06T12:17:26.796Z,73.55
2017-03-06T12:18:49.287Z,74.18
2017-03-06T12:20:11.911Z,74.02
2017-03-06T12:21:34.028Z,74.21
2017-03-06T12:22:56.468Z,74.4
2017-03-06T12:24:19.447Z,74.31
2017-03-06T12:25:42.368Z,74.98
2017-03-06T12:27:04.472Z,76.46
2017-03-06T12:28:27.320Z,77.22
2017-03-06T12:29:50.769Z,77.03
2017-03-06T12:31:12.063Z,76.94
2017-03-06T12:32:34.582Z,77.13
2017-03-06T12:33:57.377Z,75.7
2017-03-06T12:35:20.455Z,75.79
2017-03-06T12:36:43.478Z,75.6
2017-03-06T12:38:06.180Z,76.18
2017-03-06T12:39:29.346Z,77.36
2017-03-06T12:40:51.867Z,78.08
2017-03-06T12:42:14.387Z,78.17
2017-03-06T12:43:37.036Z,77.98
2017-03-06T12:44:59.408Z,77.13
2017-03-06T12:46:21.931Z,75.64
2017-03-06T12:47:44.149Z,75.36
2017-03-06T12:49:06.778Z,75.36
2017-03-06T12:50:29.947Z,76.5
2017-03-06T12:51:52.473Z,78.27
2017-03-06T12:53:15.441Z,78.56
2017-03-06T12:54:37.186Z,78.08
2017-03-06T12:56:00.386Z,77.89
2017-03-06T12:57:23.309Z,78.27
2017-03-06T12:58:45.878Z,77.03
2017-03-06T13:00:08.527Z,77.13
2017-03-06T13:01:31.310Z,77.22
2017-03-06T13:02:53.445Z,78.08
2017-03-06T13:04:15.557Z,77.42
2017-03-06T13:05:37.675Z,77.8
2017-03-06T13:07:00.033Z,76.65
2017-03-06T13:08:22.230Z,76.37
2017-03-06T13:09:44.364Z,77.42
2017-03-06T13:11:06.081Z,77.51
2017-03-06T13:12:28.883Z,77.42
2017-03-06T13:13:51.884Z,78.27
2017-03-06T13:15:14.189Z,78.37
2017-03-06T13:16:36.725Z,79.32
2017-03-06T13:17:58.382Z,79.41
2017-03-06T13:19:20.901Z,78.78
2017-03-06T13:20:43.438Z,78.31
2017-03-06T13:22:05.625Z,78.31
2017-03-06T13:23:28.424Z,79.07
2017-03-06T13:24:51.014Z,80.6
2017-03-06T13:26:13.951Z,81.17
2017-03-06T13:27:36.138Z,81.03
2017-03-06T13:28:59.371Z,80.75
2017-03-06T13:30:21.900Z,80.75
2017-03-06T13:31:44.404Z,80.36
2017-03-06T13:33:06.926Z,82.27
2017-03-06T13:34:30.099Z,83.94
2017-03-06T13:35:53.038Z,84.7
2017-03-06T13:37:15.580Z,82.8
2017-03-06T13:38:38.518Z,80.04
2017-03-06T13:40:01.293Z,79.19
2017-03-06T13:41:22.613Z,78.8
2017-03-06T13:42:45.189Z,79.66
2017-03-06T13:44:07.960Z,79.38
2017-03-06T13:45:31.146Z,79.28
2017-03-06T13:46:53.288Z,78.85
2017-03-06T13:48:15.402Z,79.03
2017-03-06T13:49:37.969Z,78.23
2017-03-06T13:51:01.160Z,79.19
2017-03-06T13:52:24.073Z,79.94
2017-03-06T13:53:47.028Z,81.18
2017-03-06T13:55:09.205Z,80.8
2017-03-06T13:56:32.454Z,81.79
2017-03-06T13:57:55.376Z,81.79
2017-03-06T13:59:17.888Z,81.98
2017-03-06T14:00:40.437Z,82.56
2017-03-06T14:02:03.240Z,83.03
2017-03-06T14:03:25.473Z,83.03
2017-03-06T14:04:47.998Z,83.7
2017-03-06T14:06:10.485Z,84.08
2017-03-06T14:07:33.368Z,84.56
2017-03-06T14:08:56.356Z,84.84
2017-03-06T14:10:18.509Z,85.03
2017-03-06T14:11:41.030Z,86.27
2017-03-06T14:13:03.920Z,86.55
2017-03-06T14:14:26.459Z,85.89
2017-03-06T14:15:49.409Z,84.75
2017-03-06T14:17:11.957Z,84.75
2017-03-06T14:18:34.696Z,84.75
2017-03-06T14:19:56.855Z,85.6
2017-03-06T14:21:19.799Z,85.7
2017-03-06T14:22:42.750Z,84.75
2017-03-06T14:24:04.724Z,83.89
2017-03-06T14:25:27.221Z,84.75
2017-03-06T14:26:49.742Z,85.41
2017-03-06T14:28:12.646Z,84.94
2017-03-06T14:29:35.960Z,85.56
2017-03-06T14:30:58.637Z,87.94
2017-03-06T14:32:21.567Z,86.42
2017-03-06T14:33:44.477Z,85.66
2017-03-06T14:35:07.240Z,85.85
2017-03-06T14:36:30.188Z,86.13
2017-03-06T14:37:52.705Z,86.42
2017-03-06T14:39:15.247Z,85.75
2017-03-06T14:40:38.132Z,85.75
2017-03-06T14:42:00.245Z,85.66
2017-03-06T14:43:23.196Z,85.85
2017-03-06T14:44:45.741Z,85.85
2017-03-06T14:46:09.129Z,86.94
2017-03-06T14:47:32.063Z,86.38
2017-03-06T14:48:54.190Z,87.85
2017-03-06T14:50:16.731Z,86.99
2017-03-06T14:51:39.489Z,87.18
2017-03-06T14:53:02.461Z,86.99
2017-03-06T14:54:25.034Z,86.85
2017-03-06T14:55:47.573Z,87.08
2017-03-06T14:57:10.163Z,86.9
2017-03-06T14:58:33.088Z,87.94
2017-03-06T14:59:55.987Z,87.13
2017-03-06T15:01:18.628Z,87.8
2017-03-06T15:02:41.255Z,87.8
2017-03-06T15:04:04.198Z,88.56
2017-03-06T15:05:27.208Z,89.42
2017-03-06T15:06:49.788Z,89.42
2017-03-06T15:08:12.242Z,90.04
2017-03-06T15:09:35.260Z,89.37
2017-03-06T15:10:58.211Z,89.04
2017-03-06T15:12:21.349Z,88.85
2017-03-06T15:13:44.619Z,88.8
2017-03-06T15:15:07.596Z,89.66
2017-03-06T15:16:30.168Z,89.75
2017-03-06T15:17:52.709Z,89.47
2017-03-06T15:19:15.483Z,89.18
2017-03-06T15:20:37.207Z,89.18
2017-03-06T15:21:59.840Z,88.61
2017-03-06T15:23:22.416Z,88.42
2017-03-06T15:24:45.604Z,87.95
2017-03-06T15:26:08.109Z,88.8
2017-03-06T15:27:31.038Z,88.52
2017-03-06T15:28:53.628Z,88.13
2017-03-06T15:30:16.072Z,89
2017-03-06T15:31:38.879Z,88.9
2017-03-06T15:33:01.426Z,89.66
2017-03-06T15:34:24.362Z,88.9
2017-03-06T15:35:46.343Z,89.75
2017-03-06T15:37:08.833Z,89.94
2017-03-06T15:38:31.373Z,89.28
2017-03-06T15:39:53.901Z,89.28
2017-03-06T15:41:17.217Z,90.04
2017-03-06T15:42:39.468Z,90.04
2017-03-06T15:44:01.991Z,89.85
2017-03-06T15:45:25.119Z,89.66
2017-03-06T15:46:47.138Z,90.28
2017-03-06T15:48:08.891Z,89.94
2017-03-06T15:49:31.859Z,90.23
2017-03-06T15:50:54.694Z,90.52
2017-03-06T15:52:17.536Z,90.7
2017-03-06T15:53:39.661Z,90.75
2017-03-06T15:55:02.207Z,90.7
2017-03-06T15:56:24.794Z,91.61
2017-03-06T15:57:46.813Z,91.37
2017-03-06T15:59:08.550Z,91.37
2017-03-06T16:00:30.748Z,91.37
2017-03-06T16:01:53.282Z,91.47
2017-03-06T16:03:16.596Z,91.52
2017-03-06T16:04:38.232Z,91.94
2017-03-06T16:06:01.134Z,91.75
2017-03-06T16:07:22.859Z,92.03
2017-03-06T16:08:46.096Z,91.85
2017-03-06T16:10:08.885Z,91.75
2017-03-06T16:11:31.436Z,91.23
2017-03-06T16:12:54.387Z,91.75
2017-03-06T16:14:17.249Z,92.03
2017-03-06T16:15:39.751Z,92.56
2017-03-06T16:17:02.838Z,92.94
2017-03-06T16:18:24.523Z,93.79
2017-03-06T16:19:47.303Z,92.85
2017-03-06T16:21:10.305Z,93.41
2017-03-06T16:22:33.257Z,93.23
2017-03-06T16:23:56.218Z,93.13
2017-03-06T16:25:19.105Z,93.7
2017-03-06T16:26:42.001Z,92.46
2017-03-06T16:28:05.021Z,92.46
2017-03-06T16:29:27.541Z,92.75
2017-03-06T16:30:50.844Z,93.7
2017-03-06T16:32:13.811Z,93.04
2017-03-06T16:33:36.569Z,93.6
2017-03-06T16:34:59.491Z,93.51
2017-03-06T16:36:22.908Z,94.27
2017-03-06T16:37:45.419Z,94.27
2017-03-06T16:39:07.636Z,95.32
2017-03-06T16:40:30.660Z,95.6
2017-03-06T16:41:53.885Z,95.89
2017-03-06T16:43:15.599Z,95.84
2017-03-06T16:44:38.194Z,96.22
2017-03-06T16:46:01.562Z,96.98
2017-03-06T16:47:24.353Z,97.55
2017-03-06T16:48:47.310Z,98.31
2017-03-06T16:50:09.870Z,99.16
2017-03-06T16:51:32.777Z,99.16
2017-03-06T16:52:56.033Z,99.87
2017-03-06T16:54:19.078Z,99.83
2017-03-06T16:55:42.110Z,99.87
2017-03-06T16:57:04.720Z,99.99
2017-03-06T16:58:28.010Z,99.97
2017-03-06T16:59:50.971Z,99.99
2017-03-06T17:01:13.891Z,99.99
2017-03-06T17:02:36.918Z,99.99
2017-03-06T17:03:58.868Z,99.99
2017-03-06T17:05:21.660Z,99.99
2017-03-06T17:06:44.703Z,99.99
2017-03-06T17:08:06.838Z,99.99
2017-03-06T17:09:29.717Z,99.99
2017-03-06T17:10:52.245Z,99.99
2017-03-06T17:12:13.989Z,99.99
2017-03-06T17:13:36.955Z,99.99
2017-03-06T17:15:00.208Z,99.99
2017-03-06T17:16:22.359Z,99.99
2017-03-06T17:17:44.873Z,99.99
2017-03-06T17:19:07.398Z,99.99
2017-03-06T17:20:30.231Z,99.99
2017-03-06T17:21:52.792Z,99.99
2017-03-06T17:23:15.727Z,99.99
2017-03-06T17:24:37.916Z,99.99
2017-03-06T17:26:01.177Z,99.99
2017-03-06T17:27:23.860Z,99.99
2017-03-06T17:28:47.066Z,99.99
2017-03-06T17:30:09.978Z,99.99
2017-03-06T17:31:33.050Z,99.99
2017-03-06T17:32:55.606Z,99.99
2017-03-06T17:34:18.629Z,99.99
2017-03-06T17:35:41.569Z,99.99
2017-03-06T17:37:04.330Z,99.99
2017-03-06T17:38:26.850Z,99.99
2017-03-06T17:39:49.850Z,99.99
2017-03-06T17:41:11.987Z,99.99
2017-03-06T17:42:34.575Z,99.99
2017-03-06T17:43:56.763Z,99.99
2017-03-06T17:45:19.669Z,99.99
2017-03-06T17:46:42.603Z,99.99
2017-03-06T17:48:05.545Z,99.99